Time;durP1;ratioP1;P1;durP2;ratioP2;P2;SDS_P1;SDS_P2;PMS_P1;PMS_P2;Temp;Humidity;BMP_temperature;BMP_pressure;BME280_temperature;BME280_humidity;BME280_pressure;Samples;Min_cycle;Max_cycle;Signal;HPM_P1;HPM_P2
2023/11/17 00:02:16;;;;;;;2.20;2.00;;;;;;;10.87;63.09;96806.81;5049045;28;20432;-70
2023/11/17 00:04:41;;;;;;;2.53;2.33;;;;;;;10.89;62.79;96825.81;5062082;28;20191;-70
2023/11/17 00:07:07;;;;;;;2.73;2.30;;;;;;;10.88;62.63;96834.66;5043666;28;20219;-70
2023/11/17 00:09:32;;;;;;;1.80;1.70;;;;;;;10.86;62.91;96837.44;5063646;28;20182;-69
2023/11/17 00:11:58;;;;;;;2.30;2.10;;;;;;;10.89;62.96;96850.22;5047472;28;20252;-70
2023/11/17 00:14:24;;;;;;;1.83;1.73;;;;;;;10.88;62.77;96856.44;5050049;28;20183;-72
2023/11/17 00:16:49;;;;;;;2.20;2.00;;;;;;;10.87;62.44;96870.53;5050376;28;20519;-69
2023/11/17 00:19:15;;;;;;;2.63;2.20;;;;;;;10.84;62.44;96886.59;5056208;28;20301;-68
2023/11/17 00:21:40;;;;;;;1.90;1.80;;;;;;;10.78;62.38;96902.97;5042741;28;20372;-73
2023/11/17 00:24:06;;;;;;;1.57;1.47;;;;;;;10.82;62.44;96919.19;5048841;28;20282;-71
2023/11/17 00:26:32;;;;;;;1.40;1.30;;;;;;;10.79;62.25;96925.59;5036038;28;20198;-73
2023/11/17 00:28:58;;;;;;;1.77;1.53;;;;;;;10.81;62.14;96936.75;5027971;28;20465;-72
2023/11/17 00:31:23;;;;;;;1.47;1.37;;;;;;;10.82;61.82;96943.63;5052265;28;20552;-71
2023/11/17 00:33:49;;;;;;;1.97;1.30;;;;;;;10.83;61.61;96958.38;5049089;28;20214;-73
2023/11/17 00:36:15;;;;;;;1.53;1.20;;;;;;;10.84;61.54;96969.66;5040369;28;20195;-71
2023/11/17 00:38:40;;;;;;;2.30;1.60;;;;;;;10.75;61.13;96988.00;5048506;28;20187;-72
2023/11/17 00:41:07;;;;;;;1.50;1.27;;;;;;;10.75;61.41;96995.03;5047406;28;20500;-72
2023/11/17 00:43:33;;;;;;;1.97;1.30;;;;;;;10.74;61.64;96996.84;5056974;28;20195;-72
2023/11/17 00:45:59;;;;;;;1.30;1.10;;;;;;;10.77;61.45;97013.25;5050037;28;20662;-70
2023/11/17 00:48:25;;;;;;;1.60;1.30;;;;;;;10.76;61.55;97022.88;5052160;28;20199;-72
2023/11/17 00:50:55;;;;;;;1.67;1.23;;;;;;;10.79;61.64;97033.06;5046364;28;20532;-71
2023/11/17 00:53:26;;;;;;;1.20;1.03;;;;;;;10.73;61.68;97044.16;5046811;28;20425;-70
2023/11/17 00:55:54;;;;;;;1.93;1.17;;;;;;;10.74;61.62;97046.66;5026865;28;20460;-71
2023/11/17 00:58:20;;;;;;;1.70;1.60;;;;;;;10.68;61.38;97055.13;5062024;28;20436;-70
2023/11/17 01:00:46;;;;;;;1.30;1.20;;;;;;;10.63;60.96;97067.06;5054647;28;21034;-71
2023/11/17 01:03:12;;;;;;;1.30;1.20;;;;;;;10.55;61.21;97086.16;5053401;28;20197;-70
2023/11/17 01:05:37;;;;;;;1.53;1.43;;;;;;;10.50;61.22;97097.13;5029828;28;20241;-72
2023/11/17 01:08:03;;;;;;;1.30;1.20;;;;;;;10.44;61.07;97103.81;5044235;28;20441;-71
2023/11/17 01:10:28;;;;;;;1.50;1.10;;;;;;;10.41;60.74;97119.81;5058241;28;20269;-71
2023/11/17 01:12:54;;;;;;;1.10;0.87;;;;;;;10.43;60.98;97123.13;5046766;28;20237;-71
2023/11/17 01:15:20;;;;;;;0.90;0.70;;;;;;;10.44;60.88;97129.19;5047845;28;20740;-70
2023/11/17 01:17:46;;;;;;;1.67;1.10;;;;;;;10.44;60.71;97139.66;5037727;28;21002;-72
2023/11/17 01:20:12;;;;;;;1.67;0.80;;;;;;;10.46;60.94;97140.31;5040013;28;20469;-70
2023/11/17 01:22:39;;;;;;;1.60;1.10;;;;;;;10.45;60.74;97150.00;5051349;28;20537;-70
2023/11/17 01:25:05;;;;;;;1.20;1.10;;;;;;;10.41;61.06;97164.34;5047128;28;20517;-69
2023/11/17 01:27:31;;;;;;;1.10;1.00;;;;;;;10.45;61.41;97175.38;5050459;28;20930;-72
2023/11/17 01:29:56;;;;;;;1.00;0.90;;;;;;;10.48;61.38;97179.50;5052958;28;20441;-72
2023/11/17 01:32:22;;;;;;;1.20;1.10;;;;;;;10.46;61.43;97187.47;5051474;28;20723;-73
2023/11/17 01:34:48;;;;;;;1.30;1.10;;;;;;;10.52;61.45;97205.22;5044828;28;20558;-73
2023/11/17 01:37:13;;;;;;;1.40;1.20;;;;;;;10.47;61.91;97204.03;5038628;28;20222;-72
2023/11/17 01:39:39;;;;;;;1.20;1.10;;;;;;;10.52;61.51;97217.53;5048377;28;20678;-72
2023/11/17 01:42:05;;;;;;;2.00;1.20;;;;;;;10.57;61.75;97221.34;5052885;28;20270;-74
2023/11/17 01:44:31;;;;;;;1.33;1.20;;;;;;;10.58;61.50;97232.63;5044141;28;20198;-73
2023/11/17 01:46:57;;;;;;;1.20;1.10;;;;;;;10.57;61.71;97241.47;5049630;28;20440;-73
2023/11/17 01:49:22;;;;;;;1.73;1.30;;;;;;;10.56;61.74;97238.03;5039374;28;20218;-70
2023/11/17 01:51:50;;;;;;;2.27;1.20;;;;;;;10.52;61.80;97239.28;5037131;28;20223;-71
2023/11/17 01:54:16;;;;;;;1.63;1.50;;;;;;;10.52;61.92;97244.53;5015506;28;20649;-73
2023/11/17 01:56:41;;;;;;;1.60;1.50;;;;;;;10.53;61.80;97246.19;5046891;28;20456;-72
2023/11/17 01:59:07;;;;;;;1.70;1.60;;;;;;;10.48;61.39;97258.91;5032880;28;20230;-72
2023/11/17 02:01:34;;;;;;;2.80;1.60;;;;;;;10.47;61.52;97262.50;5047427;28;20217;-70
2023/11/17 02:04:00;;;;;;;2.13;1.43;;;;;;;10.43;61.52;97261.16;5050060;28;20187;-72
2023/11/17 02:06:33;;;;;;;1.83;1.50;;;;;;;10.40;61.63;97275.38;5053466;28;20440;-71
2023/11/17 02:09:13;;;;;;;2.20;1.73;;;;;;;10.43;61.64;97285.56;5046543;28;20433;-72
2023/11/17 02:11:49;;;;;;;1.60;1.40;;;;;;;10.46;61.85;97287.03;5047635;28;20457;-71
2023/11/17 02:14:18;;;;;;;1.73;1.57;;;;;;;10.48;61.84;97286.91;5046658;28;20438;-72
2023/11/17 02:16:45;;;;;;;3.10;1.80;;;;;;;10.47;61.94;97299.19;5050509;28;20880;-73
2023/11/17 02:19:21;;;;;;;1.70;1.60;;;;;;;10.47;61.69;97301.00;5036413;28;20466;-72
2023/11/17 02:21:48;;;;;;;5.93;1.60;;;;;;;10.51;61.91;97308.41;5054003;28;20518;-70
2023/11/17 02:24:14;;;;;;;4.63;1.77;;;;;;;10.53;61.76;97309.06;5027654;28;20979;-71
2023/11/17 02:26:59;;;;;;;3.17;2.10;;;;;;;10.53;62.10;97314.31;5040194;28;20476;-72
2023/11/17 02:29:37;;;;;;;3.80;2.43;;;;;;;10.50;62.01;97314.59;5049385;28;20451;-72
2023/11/17 02:32:04;;;;;;;2.40;2.07;;;;;;;10.51;62.14;97318.88;5034671;28;20451;-69
2023/11/17 02:34:30;;;;;;;7.63;2.43;;;;;;;10.51;62.15;97325.94;5049839;28;20511;-71
2023/11/17 02:36:58;;;;;;;3.73;2.10;;;;;;;10.54;62.18;97331.69;5026461;28;20446;-69
2023/11/17 02:39:27;;;;;;;2.50;2.10;;;;;;;10.44;62.67;97331.75;5028195;28;20551;-71
2023/11/17 02:41:57;;;;;;;2.10;1.90;;;;;;;10.45;62.46;97341.25;5046048;28;21010;-71
2023/11/17 02:44:28;;;;;;;4.90;2.07;;;;;;;10.53;62.66;97343.16;5053070;28;20432;-70
2023/11/17 02:46:58;;;;;;;1.93;1.67;;;;;;;10.49;62.19;97344.41;5038911;28;20491;-71
2023/11/17 02:49:45;;;;;;;2.10;1.70;;;;;;;10.56;62.15;97344.63;5040849;28;20467;-71
2023/11/17 02:52:26;;;;;;;2.10;1.90;;;;;;;10.48;62.39;97355.84;5036251;28;20833;-71
2023/11/17 02:54:52;;;;;;;2.57;1.60;;;;;;;10.45;62.66;97361.41;5051636;28;20437;-71
2023/11/17 02:57:21;;;;;;;2.67;2.10;;;;;;;10.52;62.53;97370.31;5043369;28;20892;-68
2023/11/17 02:59:47;;;;;;;2.20;1.60;;;;;;;10.50;62.55;97372.25;5002701;28;20226;-71
2023/11/17 03:02:15;;;;;;;2.13;1.90;;;;;;;10.45;62.96;97382.38;5031418;28;20431;-70
2023/11/17 03:04:43;;;;;;;1.73;1.63;;;;;;;10.47;63.01;97387.47;5037978;28;20557;-72
2023/11/17 03:07:09;;;;;;;5.80;2.00;;;;;;;10.49;62.86;97391.56;5035339;28;20506;-70
2023/11/17 03:09:35;;;;;;;3.47;2.07;;;;;;;10.50;62.82;97390.59;5051830;28;20418;-70
2023/11/17 03:12:00;;;;;;;2.33;1.80;;;;;;;10.49;62.81;97396.81;5054793;28;20277;-70
2023/11/17 03:14:27;;;;;;;5.33;2.47;;;;;;;10.55;62.85;97395.41;5048769;28;20195;-70
2023/11/17 03:16:53;;;;;;;5.00;1.70;;;;;;;10.54;62.68;97393.75;5047858;28;20198;-71
2023/11/17 03:19:19;;;;;;;2.30;1.57;;;;;;;10.55;62.36;97396.25;5058757;28;20548;-72
2023/11/17 03:21:45;;;;;;;3.40;2.20;;;;;;;10.56;62.61;97400.50;5057962;28;20445;-71
2023/11/17 03:24:17;;;;;;;2.10;1.80;;;;;;;10.58;62.60;97403.81;5043147;28;20586;-71
2023/11/17 03:26:52;;;;;;;2.20;2.00;;;;;;;10.59;62.01;97408.06;5050466;28;20195;-72
2023/11/17 03:29:22;;;;;;;3.10;1.80;;;;;;;10.59;61.79;97408.06;5037270;28;20436;-71
2023/11/17 03:31:49;;;;;;;4.67;1.90;;;;;;;10.56;61.64;97418.84;5059268;28;20449;-72
2023/11/17 03:34:15;;;;;;;4.30;1.90;;;;;;;10.48;61.85;97420.56;5052006;28;20444;-70
2023/11/17 03:36:41;;;;;;;1.80;1.70;;;;;;;10.52;61.86;97425.34;5050171;28;20817;-69
2023/11/17 03:39:12;;;;;;;1.93;1.67;;;;;;;10.50;61.98;97435.16;5051024;28;20476;-70
2023/11/17 03:41:39;;;;;;;2.07;1.67;;;;;;;10.47;61.67;97432.81;5044402;28;20685;-71
2023/11/17 03:44:06;;;;;;;1.30;1.20;;;;;;;10.47;61.51;97440.69;5037566;28;20434;-69
2023/11/17 03:46:31;;;;;;;2.43;1.40;;;;;;;10.47;61.59;97439.88;5049349;28;20426;-70
2023/11/17 03:48:57;;;;;;;1.80;1.50;;;;;;;10.43;61.78;97444.59;5044652;28;20487;-71
2023/11/17 03:51:22;;;;;;;2.80;2.03;;;;;;;10.41;61.88;97447.31;5039488;28;20211;-71
2023/11/17 03:53:48;;;;;;;2.23;1.60;;;;;;;10.46;61.65;97444.25;5046071;28;20664;-71
2023/11/17 03:56:13;;;;;;;1.67;1.57;;;;;;;10.44;61.55;97444.44;5044442;28;20665;-72
2023/11/17 03:58:39;;;;;;;2.30;1.40;;;;;;;10.44;61.83;97451.47;5060820;28;20213;-69
2023/11/17 04:01:04;;;;;;;3.10;1.37;;;;;;;10.42;62.07;97454.22;5058491;28;20264;-68
2023/11/17 04:03:31;;;;;;;1.43;1.27;;;;;;;10.38;62.21;97454.66;5055131;28;20189;-69
2023/11/17 04:05:56;;;;;;;2.30;1.47;;;;;;;10.34;62.46;97459.34;5047216;28;20202;-71
2023/11/17 04:08:22;;;;;;;1.70;1.37;;;;;;;10.40;62.32;97471.06;5016028;28;20537;-71
2023/11/17 04:10:47;;;;;;;1.80;1.70;;;;;;;10.43;62.13;97461.13;5037333;28;20265;-72
2023/11/17 04:13:14;;;;;;;3.00;1.97;;;;;;;10.39;62.05;97466.78;5044534;28;20719;-72
2023/11/17 04:15:39;;;;;;;1.80;1.53;;;;;;;10.36;62.19;97467.03;5041687;28;20696;-71
2023/11/17 04:18:05;;;;;;;1.80;1.60;;;;;;;10.42;62.01;97477.00;5052831;28;20491;-71
2023/11/17 04:20:31;;;;;;;1.93;1.77;;;;;;;10.44;62.06;97472.44;5046381;28;20238;-69
2023/11/17 04:22:57;;;;;;;2.67;1.50;;;;;;;10.40;62.17;97476.31;5047267;28;20190;-71
2023/11/17 04:25:22;;;;;;;2.37;1.40;;;;;;;10.41;62.47;97470.09;5042217;28;20430;-71
2023/11/17 04:27:48;;;;;;;1.90;1.70;;;;;;;10.41;61.94;97476.16;5020131;28;20199;-71
2023/11/17 04:30:13;;;;;;;1.90;1.50;;;;;;;10.36;61.63;97477.53;5038851;28;20689;-71
2023/11/17 04:32:39;;;;;;;2.60;1.50;;;;;;;10.35;62.14;97478.50;5048479;28;20709;-72
2023/11/17 04:35:06;;;;;;;2.00;1.80;;;;;;;10.34;62.33;97472.44;5048697;28;20275;-71
2023/11/17 04:37:31;;;;;;;2.20;1.73;;;;;;;10.36;62.18;97478.38;5046828;28;20199;-73
2023/11/17 04:39:57;;;;;;;1.90;1.80;;;;;;;10.36;61.84;97480.97;5051469;28;20467;-72
2023/11/17 04:42:22;;;;;;;2.80;1.57;;;;;;;10.39;61.78;97488.59;5044064;28;20194;-71
2023/11/17 04:44:48;;;;;;;1.93;1.20;;;;;;;10.39;61.30;97490.38;5051655;28;20617;-69
2023/11/17 04:47:14;;;;;;;1.77;1.50;;;;;;;10.35;61.35;97486.34;5052580;28;20273;-70
2023/11/17 04:49:40;;;;;;;2.50;1.30;;;;;;;10.29;61.09;97493.84;5048808;28;20191;-70
2023/11/17 04:52:05;;;;;;;1.63;1.30;;;;;;;10.28;61.17;97491.34;5050755;28;20968;-72
2023/11/17 04:54:31;;;;;;;1.83;1.30;;;;;;;10.22;61.40;97486.69;5047196;28;20512;-72
2023/11/17 04:56:56;;;;;;;2.10;1.40;;;;;;;10.22;61.13;97492.72;5042848;28;20692;-71
2023/11/17 04:59:22;;;;;;;2.40;1.47;;;;;;;10.20;60.99;97493.84;5050393;28;20242;-71
2023/11/17 05:01:47;;;;;;;2.07;1.30;;;;;;;10.23;60.95;97494.38;5052267;28;20218;-73
2023/11/17 05:04:13;;;;;;;1.20;1.10;;;;;;;10.25;60.95;97499.50;5047076;28;20197;-70
2023/11/17 05:06:39;;;;;;;3.63;1.67;;;;;;;10.24;60.79;97503.91;5047916;28;20191;-71
2023/11/17 05:09:14;;;;;;;1.30;1.20;;;;;;;10.28;60.83;97500.03;5047976;28;20180;-73
2023/11/17 05:11:39;;;;;;;1.73;1.63;;;;;;;10.25;60.82;97504.75;5053283;28;20305;-71
2023/11/17 05:14:05;;;;;;;2.20;1.50;;;;;;;10.25;60.87;97515.22;5057454;28;20570;-71
2023/11/17 05:16:34;;;;;;;1.67;1.20;;;;;;;10.24;60.72;97513.56;5047473;28;20195;-71
2023/11/17 05:18:59;;;;;;;1.90;1.47;;;;;;;10.21;61.04;97506.78;5028726;28;20250;-72
2023/11/17 05:21:24;;;;;;;1.63;1.50;;;;;;;10.20;61.38;97514.81;5039635;28;20603;-73
2023/11/17 05:23:50;;;;;;;6.23;1.60;;;;;;;10.18;61.82;97514.97;5053624;28;20218;-72
2023/11/17 05:26:15;;;;;;;2.70;1.23;;;;;;;10.18;61.66;97512.34;5044374;28;21584;-71
2023/11/17 05:28:41;;;;;;;1.60;1.33;;;;;;;10.22;61.44;97510.25;5030580;28;20214;-73
2023/11/17 05:31:07;;;;;;;1.87;1.50;;;;;;;10.23;61.03;97517.97;5047660;28;20301;-72
2023/11/17 05:33:32;;;;;;;1.83;1.60;;;;;;;10.27;61.46;97513.28;5047433;28;20205;-71
2023/11/17 05:35:58;;;;;;;1.83;1.60;;;;;;;10.25;60.76;97521.28;5055249;28;20440;-70
2023/11/17 05:38:25;;;;;;;2.40;1.70;;;;;;;10.22;60.91;97528.59;5047445;28;20278;-72
2023/11/17 05:40:51;;;;;;;2.47;1.70;;;;;;;10.21;61.25;97524.31;5047764;28;20241;-72
2023/11/17 05:43:17;;;;;;;3.40;1.70;;;;;;;10.20;61.26;97528.75;5053914;28;20445;-72
2023/11/17 05:45:42;;;;;;;2.63;1.70;;;;;;;10.23;61.51;97525.81;5047406;28;20441;-70
2023/11/17 05:48:10;;;;;;;2.53;1.50;;;;;;;10.22;61.54;97531.22;5055151;28;20269;-70
2023/11/17 05:50:36;;;;;;;2.13;1.63;;;;;;;10.22;61.70;97534.66;5052896;28;20284;-71
2023/11/17 05:53:02;;;;;;;4.50;1.77;;;;;;;10.20;61.01;97538.38;5048187;28;20472;-70
2023/11/17 05:55:28;;;;;;;1.90;1.70;;;;;;;10.22;61.48;97547.75;5042773;28;20472;-70
2023/11/17 05:57:54;;;;;;;2.53;1.77;;;;;;;10.23;61.33;97543.34;5048101;28;20550;-71
2023/11/17 06:00:19;;;;;;;1.50;1.40;;;;;;;10.17;60.97;97544.75;5040226;28;20541;-72
2023/11/17 06:02:45;;;;;;;1.80;1.63;;;;;;;10.21;61.15;97547.91;5063882;28;20273;-70
2023/11/17 06:05:13;;;;;;;3.50;1.77;;;;;;;10.23;60.77;97549.41;5048994;28;20242;-71
2023/11/17 06:07:39;;;;;;;2.43;2.07;;;;;;;10.24;60.82;97545.81;5049149;28;20245;-72
2023/11/17 06:10:05;;;;;;;1.77;1.53;;;;;;;10.20;60.74;97548.88;5044704;28;20453;-71
2023/11/17 06:12:31;;;;;;;3.10;1.60;;;;;;;10.21;60.67;97548.72;5038627;28;20281;-73
2023/11/17 06:14:56;;;;;;;2.10;1.90;;;;;;;10.28;60.72;97551.59;5055306;28;21050;-72
2023/11/17 06:17:22;;;;;;;2.90;1.80;;;;;;;10.24;60.31;97551.06;5033294;28;20441;-71
2023/11/17 06:19:48;;;;;;;2.37;1.80;;;;;;;10.24;60.62;97555.47;5031252;28;20228;-72
2023/11/17 06:22:13;;;;;;;2.07;1.57;;;;;;;10.24;60.81;97555.47;5047069;28;20677;-72
2023/11/17 06:24:38;;;;;;;4.03;2.00;;;;;;;10.24;60.57;97561.53;5048222;28;20317;-72
2023/11/17 06:27:04;;;;;;;2.27;1.53;;;;;;;10.23;60.15;97562.50;5046364;28;20183;-72
2023/11/17 06:29:29;;;;;;;3.13;2.00;;;;;;;10.20;60.50;97561.97;5045364;28;20205;-71
2023/11/17 06:31:55;;;;;;;6.47;1.70;;;;;;;10.17;60.45;97565.69;5046408;28;20216;-71
2023/11/17 06:34:21;;;;;;;2.17;1.80;;;;;;;10.17;60.59;97563.06;5058983;28;20202;-71
2023/11/17 06:36:47;;;;;;;1.63;1.40;;;;;;;10.14;60.74;97571.22;5052593;28;20425;-71
2023/11/17 06:39:16;;;;;;;4.40;2.20;;;;;;;10.17;60.58;97560.47;5043890;28;20222;-71
2023/11/17 06:41:47;;;;;;;2.43;2.13;;;;;;;10.19;60.70;97562.91;5028548;28;20219;-70
2023/11/17 06:44:13;;;;;;;3.73;2.47;;;;;;;10.13;60.63;97572.16;5048915;28;20430;-69
2023/11/17 06:46:41;;;;;;;2.23;2.00;;;;;;;10.14;60.79;97574.63;5041509;28;20973;-72
2023/11/17 06:49:12;;;;;;;3.37;2.10;;;;;;;10.15;60.74;97581.53;5055999;28;20850;-71
2023/11/17 06:51:50;;;;;;;2.33;2.00;;;;;;;10.14;60.91;97576.44;5056768;28;20568;-72
2023/11/17 06:54:21;;;;;;;2.47;2.03;;;;;;;10.11;61.00;97572.31;5062609;28;20425;-70
2023/11/17 06:56:47;;;;;;;2.87;2.00;;;;;;;10.12;60.93;97573.13;5051975;28;20426;-70
2023/11/17 06:59:16;;;;;;;2.63;1.90;;;;;;;10.16;60.85;97577.13;5047272;28;20548;-71
2023/11/17 07:01:43;;;;;;;2.23;2.00;;;;;;;10.10;60.71;97580.31;5062178;28;20205;-71
2023/11/17 07:04:10;;;;;;;3.80;1.93;;;;;;;10.06;61.13;97584.19;5053558;28;20869;-71
2023/11/17 07:06:36;;;;;;;3.07;2.10;;;;;;;10.06;60.99;97587.63;5054824;28;20789;-71
2023/11/17 07:09:02;;;;;;;5.40;2.30;;;;;;;10.11;60.85;97592.44;5058130;28;20462;-71
2023/11/17 07:11:32;;;;;;;3.33;2.87;;;;;;;10.11;60.61;97592.44;5051959;28;20487;-72
2023/11/17 07:14:01;;;;;;;2.43;2.23;;;;;;;10.08;61.11;97592.72;5061398;28;20482;-70
2023/11/17 07:16:30;;;;;;;2.10;1.90;;;;;;;10.09;61.23;97599.59;5055322;28;20429;-71
2023/11/17 07:18:55;;;;;;;2.23;2.03;;;;;;;10.08;61.48;97605.81;5049404;28;20438;-71
2023/11/17 07:21:22;;;;;;;3.20;2.00;;;;;;;10.07;61.36;97609.41;5058002;28;20457;-71
2023/11/17 07:23:49;;;;;;;3.70;2.10;;;;;;;10.05;61.43;97608.72;5051284;28;20195;-73
2023/11/17 07:26:18;;;;;;;4.10;1.90;;;;;;;9.98;61.60;97619.72;5044331;28;20444;-73
2023/11/17 07:28:47;;;;;;;2.30;1.90;;;;;;;9.99;61.67;97620.56;5042477;28;20446;-71
2023/11/17 07:31:15;;;;;;;4.70;2.40;;;;;;;9.98;61.53;97617.13;5065188;28;20440;-72
2023/11/17 07:33:41;;;;;;;3.00;2.53;;;;;;;10.03;61.52;97631.59;5050448;28;20438;-72
2023/11/17 07:36:08;;;;;;;4.60;2.60;;;;;;;9.98;61.83;97638.06;5033103;28;20428;-72
2023/11/17 07:38:36;;;;;;;2.63;2.20;;;;;;;9.99;61.96;97637.09;5055455;28;20960;-71
2023/11/17 07:41:02;;;;;;;3.00;2.57;;;;;;;9.96;62.47;97637.38;5048094;28;20998;-71
2023/11/17 07:43:27;;;;;;;3.40;2.33;;;;;;;9.94;62.55;97639.31;5049007;28;20433;-71
2023/11/17 07:45:52;;;;;;;5.03;2.00;;;;;;;10.03;62.47;97645.50;5050223;28;20218;-71
2023/11/17 07:48:18;;;;;;;1.87;1.50;;;;;;;10.04;61.95;97643.72;5039925;28;20337;-70
2023/11/17 07:50:43;;;;;;;6.90;2.00;;;;;;;10.04;61.56;97643.72;5055227;28;20747;-71
2023/11/17 07:53:09;;;;;;;2.20;1.73;;;;;;;10.08;61.66;97655.59;5056825;28;20191;-71
2023/11/17 07:55:34;;;;;;;1.57;1.47;;;;;;;10.10;61.65;97648.41;5051287;28;20182;-71
2023/11/17 07:58:01;;;;;;;3.40;1.47;;;;;;;10.12;61.53;97655.16;5056780;28;20606;-73
2023/11/17 08:00:31;;;;;;;1.70;1.60;;;;;;;10.13;61.57;97659.44;5055350;28;20213;-72
2023/11/17 08:02:56;;;;;;;8.80;1.93;;;;;;;10.07;61.13;97659.97;5051680;28;20965;-73
2023/11/17 08:05:23;;;;;;;3.00;1.90;;;;;;;10.13;61.61;97659.44;5050183;28;20429;-71
2023/11/17 08:07:49;;;;;;;8.07;1.87;;;;;;;10.23;61.75;97667.28;5055521;28;20234;-73
2023/11/17 08:10:14;;;;;;;4.50;2.00;;;;;;;10.24;62.00;97666.31;5048718;28;20484;-73
2023/11/17 08:12:40;;;;;;;2.77;1.60;;;;;;;10.23;61.27;97672.53;5057051;28;20449;-70
2023/11/17 08:15:06;;;;;;;1.77;1.67;;;;;;;10.27;61.32;97671.28;5053238;28;20195;-69
2023/11/17 08:17:32;;;;;;;6.90;1.83;;;;;;;10.29;61.28;97679.84;5045825;28;20183;-72
2023/11/17 08:19:59;;;;;;;2.33;1.93;;;;;;;10.38;61.45;97680.00;5049215;28;20495;-71
2023/11/17 08:22:29;;;;;;;2.47;2.27;;;;;;;10.40;61.41;97680.69;5048815;28;20563;-72
2023/11/17 08:24:56;;;;;;;2.40;2.20;;;;;;;10.49;61.79;97682.47;5053571;28;20813;-70
2023/11/17 08:27:22;;;;;;;2.53;2.07;;;;;;;10.63;61.84;97683.84;5038339;28;20809;-73
2023/11/17 08:29:48;;;;;;;4.60;2.30;;;;;;;10.74;61.82;97682.81;5048234;28;20490;-72
2023/11/17 08:32:13;;;;;;;2.27;1.97;;;;;;;10.68;60.71;97680.78;5046955;28;20499;-71
2023/11/17 08:34:38;;;;;;;3.53;2.10;;;;;;;10.70;60.34;97676.22;5051336;28;20252;-72
2023/11/17 08:37:05;;;;;;;2.37;1.90;;;;;;;10.68;60.56;97684.22;5044683;28;20195;-71
2023/11/17 08:39:31;;;;;;;4.13;1.90;;;;;;;10.76;60.68;97688.75;5049563;28;20317;-73
2023/11/17 08:41:56;;;;;;;3.37;2.13;;;;;;;10.81;60.50;97678.69;5055380;28;20561;-72
2023/11/17 08:44:23;;;;;;;2.63;2.37;;;;;;;10.88;60.64;97677.13;5052461;28;20955;-70
2023/11/17 08:46:49;;;;;;;2.50;1.93;;;;;;;10.99;60.99;97686.63;5046756;28;20611;-73
2023/11/17 08:49:16;;;;;;;2.27;2.07;;;;;;;11.10;60.99;97690.03;5050866;28;20425;-73
2023/11/17 08:51:42;;;;;;;1.67;1.57;;;;;;;11.15;60.75;97688.63;5026726;28;20527;-72
2023/11/17 08:54:07;;;;;;;2.47;1.90;;;;;;;11.16;59.96;97698.16;5048037;28;20516;-71
2023/11/17 08:56:34;;;;;;;2.77;1.93;;;;;;;11.12;60.17;97707.28;5046532;28;20430;-70
2023/11/17 08:59:02;;;;;;;2.33;1.73;;;;;;;11.08;59.78;97700.69;5052740;28;20198;-71
2023/11/17 09:01:28;;;;;;;3.73;1.90;;;;;;;11.06;59.42;97702.63;5049962;28;20457;-70
2023/11/17 09:03:53;;;;;;;2.77;1.80;;;;;;;11.11;59.74;97699.56;5025225;28;20421;-72
2023/11/17 09:06:19;;;;;;;3.43;2.00;;;;;;;11.14;59.74;97705.34;5053281;28;20513;-69
2023/11/17 09:08:44;;;;;;;2.30;2.13;;;;;;;11.18;59.73;97706.72;5053640;28;20790;-70
2023/11/17 09:11:11;;;;;;;3.13;1.70;;;;;;;11.22;60.29;97697.56;5050567;28;20203;-71
2023/11/17 09:13:37;;;;;;;2.10;1.87;;;;;;;11.28;59.80;97703.22;5056583;28;20950;-71
2023/11/17 09:16:03;;;;;;;1.70;1.50;;;;;;;11.25;59.30;97700.88;5050546;28;20186;-71
2023/11/17 09:18:31;;;;;;;1.37;1.27;;;;;;;11.30;59.13;97714.41;5043360;28;20183;-71
2023/11/17 09:20:57;;;;;;;2.40;1.40;;;;;;;11.31;59.59;97716.06;5060630;28;20583;-71
2023/11/17 09:23:23;;;;;;;1.40;1.30;;;;;;;11.30;59.20;97717.03;5055328;28;20516;-71
2023/11/17 09:25:49;;;;;;;2.30;1.33;;;;;;;11.32;59.03;97713.28;5056000;28;20186;-72
2023/11/17 09:28:16;;;;;;;1.40;1.30;;;;;;;11.30;59.05;97723.09;5059478;28;20672;-70
2023/11/17 09:30:42;;;;;;;2.17;2.07;;;;;;;11.30;59.03;97719.66;5050826;28;20450;-71
2023/11/17 09:33:08;;;;;;;1.83;1.50;;;;;;;11.30;59.08;97714.41;5053870;28;20450;-71
2023/11/17 09:35:36;;;;;;;1.63;1.50;;;;;;;11.26;58.26;97721.75;5047687;28;20433;-72
2023/11/17 09:38:04;;;;;;;1.80;1.70;;;;;;;11.29;59.26;97723.25;5046862;28;20433;-70
2023/11/17 09:40:33;;;;;;;1.70;1.60;;;;;;;11.34;58.98;97721.03;5051863;28;20461;-70
2023/11/17 09:43:11;;;;;;;1.50;1.40;;;;;;;11.35;58.61;97734.00;5051167;28;20432;-69
2023/11/17 09:45:37;;;;;;;1.80;1.53;;;;;;;11.41;58.46;97729.13;5041156;28;20512;-71
2023/11/17 09:48:05;;;;;;;1.60;1.30;;;;;;;11.47;58.41;97726.75;5044423;28;20529;-72
2023/11/17 09:50:30;;;;;;;1.57;1.33;;;;;;;11.52;58.07;97721.91;5032667;28;20531;-71
2023/11/17 09:52:57;;;;;;;2.80;1.50;;;;;;;11.55;57.96;97719.97;5039102;28;20429;-71
2023/11/17 09:55:27;;;;;;;1.27;1.00;;;;;;;11.50;57.86;97718.59;5046725;28;20240;-71
2023/11/17 09:57:54;;;;;;;1.93;1.27;;;;;;;11.47;57.50;97715.44;5050918;28;20420;-72
2023/11/17 10:00:22;;;;;;;1.53;1.37;;;;;;;11.42;57.31;97728.16;5044476;28;20586;-68
2023/11/17 10:03:01;;;;;;;1.30;1.10;;;;;;;11.43;57.10;97719.31;5051654;28;20434;-72
2023/11/17 10:05:29;;;;;;;1.80;1.60;;;;;;;11.40;57.45;97730.13;5053157;28;20535;-71
2023/11/17 10:08:06;;;;;;;1.40;1.30;;;;;;;11.38;57.34;97732.88;5053888;28;20512;-70
2023/11/17 10:10:37;;;;;;;1.90;1.20;;;;;;;11.35;57.46;97728.75;5051391;28;20457;-72
2023/11/17 10:13:04;;;;;;;1.27;1.17;;;;;;;11.35;57.91;97734.00;5044773;28;20428;-72
2023/11/17 10:15:31;;;;;;;1.20;1.10;;;;;;;11.36;57.28;97734.81;5048348;28;20425;-71
2023/11/17 10:18:05;;;;;;;2.53;0.97;;;;;;;11.29;57.17;97739.00;5042932;28;20433;-71
2023/11/17 10:20:31;;;;;;;1.40;1.17;;;;;;;11.32;57.42;97736.09;5051510;28;20547;-72
2023/11/17 10:22:58;;;;;;;1.40;1.23;;;;;;;11.28;57.35;97742.59;5049894;28;20439;-70
2023/11/17 10:25:24;;;;;;;8.43;2.13;;;;;;;11.24;57.41;97742.06;5050131;28;20507;-71
2023/11/17 10:27:50;;;;;;;1.23;1.10;;;;;;;11.33;57.88;97745.63;5029327;28;20481;-71
2023/11/17 10:30:20;;;;;;;2.23;1.20;;;;;;;11.36;58.26;97742.69;5039576;28;20301;-71
2023/11/17 10:32:58;;;;;;;2.80;1.10;;;;;;;11.35;57.76;97744.50;5052254;28;20514;-71
2023/11/17 10:35:24;;;;;;;1.30;1.20;;;;;;;11.37;58.10;97750.44;5033051;28;20424;-71
2023/11/17 10:37:54;;;;;;;1.30;1.10;;;;;;;11.36;57.99;97751.41;5052062;28;20513;-72
2023/11/17 10:40:28;;;;;;;1.10;1.00;;;;;;;11.37;57.44;97745.19;5047490;28;20725;-71
2023/11/17 10:43:07;;;;;;;6.80;1.10;;;;;;;11.25;57.33;97748.97;5046204;28;20417;-73
2023/11/17 10:45:34;;;;;;;1.10;1.00;;;;;;;11.34;57.44;97745.47;5048147;28;20501;-71
2023/11/17 10:48:01;;;;;;;1.60;1.50;;;;;;;11.40;57.99;97744.06;5049368;28;20437;-72
2023/11/17 10:50:28;;;;;;;1.10;1.00;;;;;;;11.46;57.04;97748.75;5034366;28;20540;-72
2023/11/17 10:52:59;;;;;;;2.27;1.00;;;;;;;11.50;57.18;97742.22;5050540;28;20433;-72
2023/11/17 10:55:42;;;;;;;1.00;0.90;;;;;;;11.46;57.27;97738.25;5049780;28;20433;-72
2023/11/17 10:58:08;;;;;;;1.20;0.93;;;;;;;11.54;56.95;97737.50;5044313;28;20449;-73
2023/11/17 11:00:37;;;;;;;1.13;1.00;;;;;;;11.58;57.03;97732.81;5049249;28;20940;-72
2023/11/17 11:03:07;;;;;;;1.17;1.07;;;;;;;11.56;57.01;97734.75;5055771;28;20421;-71
2023/11/17 11:05:35;;;;;;;1.20;1.10;;;;;;;11.61;57.22;97732.50;5046076;28;21109;-72
2023/11/17 11:08:06;;;;;;;1.40;1.17;;;;;;;11.62;56.94;97736.78;5032861;28;20485;-72
2023/11/17 11:10:34;;;;;;;1.13;1.00;;;;;;;11.65;57.17;97736.50;5027397;28;20514;-71
2023/11/17 11:13:02;;;;;;;4.50;1.00;;;;;;;11.68;56.94;97736.19;5049855;28;20439;-73
2023/11/17 11:15:27;;;;;;;1.37;1.00;;;;;;;11.77;56.78;97737.94;5032357;28;20806;-73
2023/11/17 11:17:54;;;;;;;1.20;1.07;;;;;;;11.79;57.08;97733.38;5041897;28;20434;-70
2023/11/17 11:20:22;;;;;;;1.20;1.10;;;;;;;11.82;56.60;97735.72;5049072;28;20302;-69
2023/11/17 11:22:50;;;;;;;2.20;0.90;;;;;;;11.73;56.11;97739.19;5050145;28;20490;-70
2023/11/17 11:25:19;;;;;;;3.10;0.90;;;;;;;11.68;55.96;97741.47;5036399;28;20926;-70
2023/11/17 11:27:46;;;;;;;1.80;1.00;;;;;;;11.73;56.15;97744.44;5027528;28;20436;-70
2023/11/17 11:30:14;;;;;;;1.20;0.90;;;;;;;11.72;56.13;97750.69;5052294;28;20281;-70
2023/11/17 11:32:40;;;;;;;1.50;0.93;;;;;;;11.74;56.48;97743.47;5048422;28;20452;-71
2023/11/17 11:35:06;;;;;;;1.33;1.03;;;;;;;11.74;56.62;97751.34;5048592;28;20453;-72